createdAt,value
2017-08-09T00:02:21.926Z,11.23
2017-08-09T00:04:48.595Z,11.18
2017-08-09T00:07:15.262Z,11.80
2017-08-09T00:09:41.927Z,11.30
2017-08-09T00:12:08.596Z,11.52
2017-08-09T00:14:35.263Z,12.07
2017-08-09T00:17:01.924Z,12.00
2017-08-09T00:19:28.592Z,14.07
2017-08-09T00:21:55.298Z,12.27
2017-08-09T00:24:21.960Z,13.95
2017-08-09T00:26:48.627Z,13.40
2017-08-09T00:29:15.304Z,13.30
2017-08-09T00:31:41.971Z,13.85
2017-08-09T00:34:08.639Z,14.60
2017-08-09T00:36:35.308Z,13.48
2017-08-09T00:39:01.979Z,13.77
2017-08-09T00:41:28.724Z,13.90
2017-08-09T00:43:55.419Z,14.40
2017-08-09T00:46:22.089Z,14.35
2017-08-09T00:48:48.800Z,14.23
2017-08-09T00:51:15.471Z,15.18
2017-08-09T00:53:42.131Z,15.00
2017-08-09T00:56:08.799Z,15.07
2017-08-09T00:58:35.466Z,15.15
2017-08-09T01:01:02.136Z,14.35
2017-08-09T01:03:28.801Z,15.82
2017-08-09T01:05:55.475Z,16.25
2017-08-09T01:08:22.143Z,17.50
2017-08-09T01:10:48.835Z,17.77
2017-08-09T01:13:15.499Z,17.95
2017-08-09T01:15:42.211Z,17.48
2017-08-09T01:18:08.876Z,19.65
2017-08-09T01:20:35.543Z,17.27
2017-08-09T01:23:02.235Z,18.05
2017-08-09T01:25:28.903Z,18.45
2017-08-09T01:27:55.591Z,18.45
2017-08-09T01:30:22.255Z,17.25
2017-08-09T01:32:48.943Z,16.40
2017-08-09T01:35:15.611Z,16.75
2017-08-09T01:37:42.308Z,15.45
2017-08-09T01:40:08.975Z,14.45
2017-08-09T01:42:35.696Z,14.15
2017-08-09T01:45:02.366Z,14.95
2017-08-09T01:47:29.039Z,15.10
2017-08-09T01:49:55.707Z,15.43
2017-08-09T01:52:22.385Z,15.15
2017-08-09T01:54:49.075Z,14.80
2017-08-09T01:57:15.739Z,14.50
2017-08-09T01:59:42.427Z,16.73
2017-08-09T02:02:09.095Z,16.73
2017-08-09T02:04:35.796Z,16.98
2017-08-09T02:07:02.460Z,15.98
2017-08-09T02:09:29.154Z,16.83
2017-08-09T02:11:55.823Z,16.80
2017-08-09T02:14:22.519Z,16.50
2017-08-09T02:16:49.191Z,17.23
2017-08-09T02:19:15.887Z,16.20
2017-08-09T02:21:42.555Z,15.82
2017-08-09T02:24:09.221Z,17.35
2017-08-09T02:26:35.887Z,16.00
2017-08-09T02:29:02.555Z,14.50
2017-08-09T02:31:29.215Z,15.25
2017-08-09T02:33:55.887Z,15.35
2017-08-09T02:36:22.583Z,17.92
2017-08-09T02:38:49.244Z,18.00
2017-08-09T02:41:15.931Z,20.92
2017-08-09T02:43:42.603Z,20.20
2017-08-09T02:46:09.291Z,21.95
2017-08-09T02:48:35.959Z,20.60
2017-08-09T02:51:02.661Z,23.05
2017-08-09T02:53:29.333Z,22.42
2017-08-09T02:55:56.003Z,23.70
2017-08-09T02:58:22.671Z,23.20
2017-08-09T03:00:49.340Z,23.23
2017-08-09T03:03:16.016Z,23.52
2017-08-09T03:05:42.712Z,22.45
2017-08-09T03:08:09.399Z,21.65
2017-08-09T03:10:36.063Z,23.27
2017-08-09T03:13:02.751Z,20.45
2017-08-09T03:15:29.420Z,20.12
2017-08-09T03:17:56.111Z,21.52
2017-08-09T03:20:22.778Z,20.62
2017-08-09T03:22:49.478Z,20.25
2017-08-09T03:25:16.148Z,22.62
2017-08-09T03:27:42.823Z,23.17
2017-08-09T03:30:09.738Z,20.08
2017-08-09T03:32:36.408Z,24.23
2017-08-09T03:35:03.075Z,20.35
2017-08-09T03:37:29.734Z,21.30
2017-08-09T03:39:56.395Z,21.83
2017-08-09T03:42:23.060Z,20.73
2017-08-09T03:44:49.746Z,20.30
2017-08-09T03:47:16.407Z,21.48
2017-08-09T03:49:43.091Z,20.55
2017-08-09T03:52:09.760Z,20.83
2017-08-09T03:54:36.720Z,21.83
2017-08-09T03:57:03.384Z,21.02
2017-08-09T03:59:30.091Z,21.17
2017-08-09T04:01:56.759Z,22.35
2017-08-09T04:04:23.431Z,23.73
2017-08-09T04:06:50.099Z,21.90
2017-08-09T04:09:16.783Z,22.73
2017-08-09T04:11:43.451Z,23.35
2017-08-09T04:14:10.115Z,24.17
2017-08-09T04:16:36.782Z,25.58
2017-08-09T04:19:03.455Z,25.77
2017-08-09T04:21:30.146Z,24.17
2017-08-09T04:23:56.814Z,24.33
2017-08-09T04:26:23.515Z,25.33
2017-08-09T04:28:50.180Z,22.92
2017-08-09T04:31:16.850Z,23.45
2017-08-09T04:33:43.514Z,22.77
2017-08-09T04:36:10.181Z,26.15
2017-08-09T04:38:36.860Z,23.27
2017-08-09T04:41:03.527Z,26.02
2017-08-09T04:43:30.199Z,25.77
2017-08-09T04:45:56.867Z,25.60
2017-08-09T04:48:23.559Z,25.40
2017-08-09T04:50:50.219Z,24.98
2017-08-09T04:53:16.894Z,26.60
2017-08-09T04:55:43.555Z,26.67
2017-08-09T04:58:10.219Z,26.05
2017-08-09T05:00:36.891Z,25.37
2017-08-09T05:03:03.591Z,27.25
2017-08-09T05:05:30.256Z,26.60
2017-08-09T05:07:56.915Z,24.00
2017-08-09T05:10:23.607Z,27.48
2017-08-09T05:12:50.283Z,25.92
2017-08-09T05:15:16.956Z,24.02
2017-08-09T05:17:43.623Z,26.25
2017-08-09T05:20:10.301Z,23.73
2017-08-09T05:22:36.963Z,24.00
2017-08-09T05:25:03.636Z,22.00
2017-08-09T05:27:30.312Z,25.65
2017-08-09T05:29:56.985Z,24.35
2017-08-09T05:32:23.659Z,24.12
2017-08-09T05:34:50.323Z,27.25
2017-08-09T05:37:17.820Z,25.27
2017-08-09T05:39:44.494Z,25.50
2017-08-09T05:42:11.176Z,25.02
2017-08-09T05:44:37.947Z,25.60
2017-08-09T05:47:04.652Z,25.20
2017-08-09T05:49:31.310Z,24.85
2017-08-09T05:51:57.980Z,25.37
2017-08-09T05:54:24.661Z,26.33
2017-08-09T05:56:53.124Z,24.55
2017-08-09T05:59:19.812Z,24.02
2017-08-09T06:01:46.479Z,19.08
2017-08-09T06:04:13.147Z,13.20
2017-08-09T06:06:39.812Z,8.90
2017-08-09T06:09:06.501Z,8.17
2017-08-09T06:11:33.445Z,7.60
2017-08-09T06:14:00.127Z,7.43
2017-08-09T06:16:26.784Z,7.60
2017-08-09T06:18:53.483Z,7.20
2017-08-09T06:21:20.144Z,7.20
2017-08-09T06:23:46.830Z,6.83
2017-08-09T06:26:13.484Z,6.70
2017-08-09T06:28:40.147Z,6.70
2017-08-09T06:31:06.808Z,6.87
2017-08-09T06:33:33.476Z,6.00
2017-08-09T06:36:00.167Z,6.77
2017-08-09T06:38:26.827Z,6.27
2017-08-09T06:40:53.518Z,6.60
2017-08-09T06:43:20.183Z,6.53
2017-08-09T06:45:46.868Z,6.10
2017-08-09T06:48:13.531Z,6.10
2017-08-09T06:50:40.227Z,6.87
2017-08-09T06:53:07.840Z,6.30
2017-08-09T06:55:34.503Z,6.60
2017-08-09T06:58:01.173Z,6.20
2017-08-09T07:00:27.823Z,6.37
2017-08-09T07:02:54.507Z,5.90
2017-08-09T07:05:21.164Z,6.67
2017-08-09T07:07:47.844Z,7.10
2017-08-09T07:10:14.508Z,5.50
2017-08-09T07:12:41.195Z,6.00
2017-08-09T07:15:07.857Z,7.27
2017-08-09T07:17:34.548Z,6.63
2017-08-09T07:20:01.223Z,6.57
2017-08-09T07:22:27.910Z,5.73
2017-08-09T07:24:54.568Z,6.20
2017-08-09T07:27:21.256Z,6.93
2017-08-09T07:29:47.920Z,6.10
2017-08-09T07:32:14.621Z,7.33
2017-08-09T07:34:41.276Z,7.20
2017-08-09T07:37:07.932Z,7.43
2017-08-09T07:39:34.595Z,7.87
2017-08-09T07:42:01.321Z,7.10
2017-08-09T07:44:27.992Z,7.37
2017-08-09T07:46:54.657Z,6.50
2017-08-09T07:49:21.354Z,7.30
2017-08-09T07:51:48.015Z,6.77
2017-08-09T07:54:14.727Z,6.20
2017-08-09T07:56:41.378Z,6.57
2017-08-09T07:59:08.071Z,6.63
2017-08-09T08:01:34.736Z,6.63
2017-08-09T08:04:01.425Z,6.17
2017-08-09T08:06:28.104Z,6.67
2017-08-09T08:08:54.768Z,7.17
2017-08-09T08:11:21.429Z,7.50
2017-08-09T08:13:48.103Z,7.17
2017-08-09T08:16:14.784Z,7.27
2017-08-09T08:18:41.444Z,7.73
2017-08-09T08:21:08.132Z,8.10
2017-08-09T08:23:34.795Z,9.63
2017-08-09T08:26:01.496Z,10.23
2017-08-09T08:28:28.166Z,11.97
2017-08-09T08:30:54.868Z,10.93
2017-08-09T08:33:21.530Z,10.43
2017-08-09T08:35:48.221Z,11.03
2017-08-09T08:38:14.883Z,12.40
2017-08-09T08:40:41.615Z,12.50
2017-08-09T08:43:08.321Z,11.83
2017-08-09T08:45:35.024Z,10.40
2017-08-09T08:48:01.693Z,10.87
2017-08-09T08:50:28.388Z,11.90
2017-08-09T08:52:55.062Z,12.00
2017-08-09T08:55:21.756Z,11.57
2017-08-09T08:57:48.419Z,11.40
2017-08-09T09:00:15.088Z,11.03
2017-08-09T09:02:41.759Z,11.07
2017-08-09T09:05:08.473Z,10.43
2017-08-09T09:07:35.180Z,10.37
2017-08-09T09:10:01.852Z,9.93
2017-08-09T09:12:28.548Z,9.73
2017-08-09T09:14:55.212Z,9.57
2017-08-09T09:17:21.921Z,10.90
2017-08-09T09:19:48.606Z,10.30
2017-08-09T09:22:15.269Z,8.13
2017-08-09T09:24:41.939Z,9.83
2017-08-09T09:27:08.609Z,10.70
2017-08-09T09:29:35.270Z,9.77
2017-08-09T09:32:01.945Z,9.90
2017-08-09T09:34:28.608Z,9.77
2017-08-09T09:36:55.262Z,8.43
2017-08-09T09:39:21.924Z,8.00
2017-08-09T09:41:48.631Z,7.53
2017-08-09T09:44:15.285Z,8.13
2017-08-09T09:46:41.960Z,9.77
2017-08-09T09:49:08.644Z,9.07
2017-08-09T09:51:35.306Z,8.80
2017-08-09T09:54:01.989Z,9.10
2017-08-09T09:56:28.668Z,10.10
2017-08-09T09:58:55.381Z,8.23
2017-08-09T10:01:22.040Z,7.83
2017-08-09T10:03:48.701Z,8.77
2017-08-09T10:06:15.375Z,8.97
2017-08-09T10:08:42.034Z,8.30
2017-08-09T10:11:08.704Z,8.93
2017-08-09T10:13:35.371Z,8.40
2017-08-09T10:16:02.031Z,7.80
2017-08-09T10:18:28.686Z,8.53
2017-08-09T10:20:55.352Z,8.90
2017-08-09T10:23:22.276Z,9.70
2017-08-09T10:25:48.931Z,9.17
2017-08-09T10:28:15.584Z,8.40
2017-08-09T10:30:42.351Z,8.27
2017-08-09T10:33:09.032Z,9.60
2017-08-09T10:35:35.712Z,9.80
2017-08-09T10:38:02.378Z,10.17
2017-08-09T10:40:29.076Z,9.37
2017-08-09T10:42:55.748Z,10.30
2017-08-09T10:45:22.415Z,10.07
2017-08-09T10:47:49.072Z,9.30
2017-08-09T10:50:15.724Z,8.60
2017-08-09T10:52:42.392Z,9.40
2017-08-09T10:55:09.068Z,11.10
2017-08-09T10:57:35.742Z,11.13
2017-08-09T11:00:02.416Z,10.80
2017-08-09T11:02:29.086Z,11.30
2017-08-09T11:04:55.754Z,10.93
2017-08-09T11:07:22.445Z,10.80
2017-08-09T11:09:49.110Z,11.07
2017-08-09T11:12:16.983Z,11.60
2017-08-09T11:14:43.648Z,11.30
2017-08-09T11:17:10.316Z,11.27
2017-08-09T11:19:36.980Z,11.63
2017-08-09T11:22:03.661Z,11.00
2017-08-09T11:24:30.350Z,10.60
2017-08-09T11:26:57.171Z,10.10
2017-08-09T11:29:23.835Z,11.00
2017-08-09T11:31:50.503Z,10.80
2017-08-09T11:34:17.172Z,10.70
2017-08-09T11:36:43.837Z,10.83
2017-08-09T11:39:10.507Z,9.93
2017-08-09T11:41:37.180Z,10.70
2017-08-09T11:44:03.884Z,9.37
2017-08-09T11:46:30.539Z,8.50
2017-08-09T11:48:57.195Z,7.70
2017-08-09T11:51:23.872Z,7.37
2017-08-09T11:53:50.534Z,7.43
2017-08-09T11:56:17.192Z,6.60
2017-08-09T11:58:43.844Z,6.90
2017-08-09T12:01:10.537Z,6.37
2017-08-09T12:03:37.210Z,6.30
2017-08-09T12:06:03.888Z,6.80
2017-08-09T12:08:30.544Z,6.97
2017-08-09T12:10:57.233Z,7.80
2017-08-09T12:13:23.892Z,6.77
2017-08-09T12:15:50.576Z,6.70
2017-08-09T12:18:17.239Z,7.40
2017-08-09T12:20:43.906Z,7.37
2017-08-09T12:23:10.563Z,5.97
2017-08-09T12:25:37.227Z,7.23
2017-08-09T12:28:03.904Z,6.73
2017-08-09T12:30:30.564Z,7.30
2017-08-09T12:32:57.255Z,7.40
2017-08-09T12:35:23.914Z,6.00
2017-08-09T12:37:50.591Z,6.60
2017-08-09T12:40:17.248Z,6.77
2017-08-09T12:42:43.932Z,6.47
2017-08-09T12:45:10.593Z,6.10
2017-08-09T12:47:37.287Z,4.60
2017-08-09T12:50:03.943Z,4.60
2017-08-09T12:52:30.605Z,5.23
2017-08-09T12:54:57.263Z,5.63
2017-08-09T12:57:23.922Z,5.80
2017-08-09T12:59:50.584Z,5.70
2017-08-09T13:02:17.238Z,6.80
2017-08-09T13:04:43.911Z,6.80
2017-08-09T13:07:10.567Z,6.77
2017-08-09T13:09:37.431Z,6.20
2017-08-09T13:12:04.087Z,6.30
2017-08-09T13:14:30.759Z,4.80
2017-08-09T13:16:57.412Z,4.87
2017-08-09T13:19:24.087Z,5.03
2017-08-09T13:21:50.747Z,5.30
2017-08-09T13:24:17.448Z,6.23
2017-08-09T13:26:44.104Z,6.00
2017-08-09T13:29:10.763Z,6.00
2017-08-09T13:31:37.424Z,6.07
2017-08-09T13:34:04.075Z,6.10
2017-08-09T13:36:30.730Z,6.50
2017-08-09T13:38:57.389Z,6.70
2017-08-09T13:41:24.075Z,6.93
2017-08-09T13:43:50.736Z,7.03
2017-08-09T13:46:17.419Z,6.20
2017-08-09T13:48:44.076Z,6.70
2017-08-09T13:51:10.755Z,7.00
2017-08-09T13:53:37.412Z,6.57
2017-08-09T13:56:04.103Z,6.13
2017-08-09T13:58:30.764Z,6.67
2017-08-09T14:00:57.425Z,7.30
2017-08-09T14:03:24.088Z,7.20
2017-08-09T14:05:50.744Z,9.87
2017-08-09T14:08:17.413Z,30.10
2017-08-09T14:10:44.072Z,20.87
2017-08-09T14:13:10.767Z,9.80
2017-08-09T14:15:37.427Z,6.37
2017-08-09T14:18:04.110Z,6.10
2017-08-09T14:20:30.772Z,6.40
2017-08-09T14:22:57.451Z,6.87
2017-08-09T14:25:24.112Z,6.93
2017-08-09T14:27:50.791Z,6.63
2017-08-09T14:30:17.447Z,6.10
2017-08-09T14:32:44.132Z,5.50
2017-08-09T14:35:10.795Z,6.07
2017-08-09T14:37:37.455Z,5.67
2017-08-09T14:40:04.112Z,5.80
2017-08-09T14:42:30.771Z,5.70
2017-08-09T14:44:57.423Z,5.60
2017-08-09T14:47:24.080Z,5.60
2017-08-09T14:49:50.759Z,5.23
2017-08-09T14:52:17.415Z,5.27
2017-08-09T14:54:44.103Z,5.43
2017-08-09T14:57:10.759Z,5.10
2017-08-09T14:59:37.440Z,5.23
2017-08-09T15:02:04.091Z,5.20
2017-08-09T15:04:30.771Z,5.10
2017-08-09T15:06:57.428Z,4.33
2017-08-09T15:09:24.103Z,5.50
2017-08-09T15:11:50.772Z,5.10
2017-08-09T15:14:17.473Z,4.77
2017-08-09T15:16:44.127Z,5.80
2017-08-09T15:19:10.791Z,5.93
2017-08-09T15:21:37.448Z,5.23
2017-08-09T15:24:04.103Z,5.60
2017-08-09T15:26:30.793Z,5.17
2017-08-09T15:28:57.449Z,5.33
2017-08-09T15:31:24.132Z,5.07
2017-08-09T15:33:50.795Z,4.57
2017-08-09T15:36:17.476Z,3.90
2017-08-09T15:38:44.131Z,4.50
2017-08-09T15:41:10.827Z,4.27
2017-08-09T15:43:37.478Z,4.37
2017-08-09T15:46:04.131Z,4.57
2017-08-09T15:48:30.794Z,4.43
2017-08-09T15:50:57.459Z,4.00
2017-08-09T15:53:24.115Z,3.87
2017-08-09T15:55:50.766Z,4.30
2017-08-09T15:58:17.423Z,4.30
2017-08-09T16:00:44.083Z,3.90
2017-08-09T16:03:10.748Z,4.27
2017-08-09T16:05:37.406Z,3.90
2017-08-09T16:08:04.099Z,3.70
2017-08-09T16:10:30.756Z,3.67
2017-08-09T16:12:57.440Z,3.90
2017-08-09T16:15:24.106Z,3.60
2017-08-09T16:17:50.803Z,3.50
2017-08-09T16:20:17.465Z,3.67
2017-08-09T16:22:44.124Z,3.90
2017-08-09T16:25:10.779Z,3.33
2017-08-09T16:27:37.435Z,3.27
2017-08-09T16:30:04.096Z,3.90
2017-08-09T16:32:30.756Z,3.70
2017-08-09T16:34:57.406Z,3.57
2017-08-09T16:37:24.065Z,3.80
2017-08-09T16:39:50.764Z,3.90
2017-08-09T16:42:17.423Z,3.43
2017-08-09T16:44:44.099Z,3.67
2017-08-09T16:47:10.755Z,3.20
2017-08-09T16:49:37.455Z,3.40
2017-08-09T16:52:04.108Z,3.67
2017-08-09T16:54:30.772Z,3.50
2017-08-09T16:56:57.429Z,3.60
2017-08-09T16:59:24.086Z,3.70
2017-08-09T17:01:50.749Z,3.63
2017-08-09T17:04:17.399Z,4.23
2017-08-09T17:06:44.073Z,3.37
2017-08-09T17:09:10.751Z,4.00
2017-08-09T17:11:37.407Z,3.57
2017-08-09T17:14:04.061Z,4.13
2017-08-09T17:29:25.796Z,4.87
2017-08-09T17:31:52.483Z,3.90
2017-08-09T17:34:19.151Z,3.90
2017-08-09T17:36:45.799Z,4.30
2017-08-09T17:39:12.464Z,3.73
2017-08-09T17:41:39.120Z,4.03
2017-08-09T17:44:05.788Z,3.73
2017-08-09T17:46:32.458Z,4.50
2017-08-09T17:48:59.144Z,4.50
2017-08-09T17:51:25.806Z,4.80
2017-08-09T17:53:52.483Z,4.53
2017-08-09T17:56:19.135Z,4.23
2017-08-09T17:58:45.811Z,4.13
2017-08-09T18:01:12.471Z,4.40
2017-08-09T18:03:39.132Z,4.70
2017-08-09T18:06:05.794Z,4.43
2017-08-09T18:08:32.446Z,4.30
2017-08-09T18:10:59.112Z,4.70
2017-08-09T18:13:25.783Z,4.28
2017-08-09T18:15:52.470Z,4.40
2017-08-09T18:18:19.136Z,4.22
2017-08-09T18:20:45.823Z,5.20
2017-08-09T18:23:12.491Z,4.60
2017-08-09T18:25:39.191Z,4.70
2017-08-09T18:28:05.888Z,4.87
2017-08-09T18:30:32.552Z,5.72
2017-08-09T18:32:59.238Z,6.40
2017-08-09T18:35:25.908Z,7.12
2017-08-09T18:37:52.596Z,5.10
2017-08-09T18:40:19.259Z,4.75
2017-08-09T18:42:45.948Z,4.55
2017-08-09T18:45:12.603Z,5.35
2017-08-09T18:47:39.287Z,5.70
2017-08-09T18:50:05.955Z,5.25
2017-08-09T18:52:32.639Z,5.55
2017-08-09T18:54:59.300Z,5.82
2017-08-09T18:57:26.017Z,5.43
2017-08-09T18:59:52.692Z,5.85
2017-08-09T19:02:19.352Z,5.50
2017-08-09T19:04:47.217Z,5.85
2017-08-09T19:07:14.060Z,5.60
2017-08-09T19:09:40.711Z,5.80
2017-08-09T19:12:07.371Z,5.75
2017-08-09T19:14:34.054Z,6.30
2017-08-09T19:17:00.712Z,6.50
2017-08-09T19:19:27.386Z,6.60
2017-08-09T19:21:54.043Z,7.00
2017-08-09T19:24:20.725Z,7.53
2017-08-09T19:26:47.652Z,7.55
2017-08-09T19:29:14.335Z,7.00
2017-08-09T19:31:41.019Z,6.87
2017-08-09T19:34:07.700Z,7.37
2017-08-09T19:36:34.361Z,7.10
2017-08-09T19:39:01.020Z,7.70
2017-08-09T19:41:28.144Z,6.47
2017-08-09T19:43:54.816Z,6.85
2017-08-09T19:46:21.475Z,8.20
2017-08-09T19:48:48.132Z,6.70
2017-08-09T19:51:14.795Z,7.05
2017-08-09T19:53:45.525Z,7.35
2017-08-09T19:56:12.214Z,11.68
2017-08-09T19:58:38.879Z,9.85
2017-08-09T20:01:05.569Z,8.18
2017-08-09T20:03:32.228Z,8.82
2017-08-09T20:05:58.935Z,9.05
2017-08-09T20:08:25.602Z,8.80
2017-08-09T20:10:52.277Z,8.73
2017-08-09T20:13:18.948Z,8.30
2017-08-09T20:15:45.612Z,7.35
2017-08-09T20:18:12.276Z,7.80
2017-08-09T20:20:38.942Z,8.13
2017-08-09T20:23:05.604Z,9.15
2017-08-09T20:25:32.267Z,8.93
2017-08-09T20:27:58.935Z,9.65
2017-08-09T20:30:25.597Z,10.38
2017-08-09T20:32:52.291Z,11.50
2017-08-09T20:35:18.959Z,11.00
2017-08-09T20:37:45.665Z,10.55
2017-08-09T20:40:12.328Z,10.13
2017-08-09T20:42:38.992Z,10.55
2017-08-09T20:45:05.659Z,10.55
2017-08-09T20:47:32.322Z,10.30
2017-08-09T20:49:58.984Z,9.80
2017-08-09T20:52:25.968Z,10.32
2017-08-09T20:54:52.632Z,10.65
2017-08-09T20:57:19.300Z,11.18
2017-08-09T20:59:45.962Z,10.45
2017-08-09T21:02:12.623Z,10.73
2017-08-09T21:04:39.283Z,11.23
2017-08-09T21:07:05.951Z,11.02
2017-08-09T21:09:32.619Z,10.65
2017-08-09T21:11:59.304Z,12.65
2017-08-09T21:14:25.999Z,14.13
2017-08-09T21:16:52.675Z,13.68
2017-08-09T21:19:19.367Z,14.38
2017-08-09T21:21:46.027Z,13.50
2017-08-09T21:24:12.730Z,13.62
2017-08-09T21:26:39.407Z,14.68
2017-08-09T21:29:06.071Z,14.05
2017-08-09T21:31:32.731Z,14.75
2017-08-09T21:33:59.390Z,12.82
2017-08-09T21:36:26.056Z,14.45
2017-08-09T21:38:52.720Z,16.50
2017-08-09T21:41:19.416Z,15.50
2017-08-09T21:43:46.084Z,14.70
2017-08-09T21:46:12.755Z,14.65
2017-08-09T21:48:39.415Z,14.75
2017-08-09T21:51:06.108Z,14.68
2017-08-09T21:53:32.777Z,15.27
2017-08-09T21:55:59.468Z,14.15
2017-08-09T21:58:26.142Z,13.75
2017-08-09T22:00:52.826Z,14.13
2017-08-09T22:03:19.496Z,13.80
2017-08-09T22:05:46.191Z,14.05
2017-08-09T22:08:12.865Z,15.48
2017-08-09T22:10:39.535Z,15.43
2017-08-09T22:13:06.205Z,15.80
2017-08-09T22:15:32.872Z,15.80
2017-08-09T22:17:59.539Z,16.23
2017-08-09T22:20:26.199Z,15.10
2017-08-09T22:22:52.871Z,14.23
2017-08-09T22:25:19.539Z,15.38
2017-08-09T22:27:46.217Z,16.08
2017-08-09T22:30:12.900Z,15.88
2017-08-09T22:32:39.590Z,14.55
2017-08-09T22:35:06.263Z,16.30
2017-08-09T22:37:32.931Z,15.40
2017-08-09T22:39:59.591Z,15.63
2017-08-09T22:42:26.291Z,15.80
2017-08-09T22:44:52.955Z,15.88
2017-08-09T22:47:19.615Z,14.48
2017-08-09T22:49:46.288Z,16.20
2017-08-09T22:52:12.955Z,16.58
2017-08-09T22:54:39.620Z,17.60
2017-08-09T22:57:06.284Z,15.60
2017-08-09T22:59:33.652Z,15.23
2017-08-09T23:02:00.327Z,17.17
2017-08-09T23:04:26.991Z,18.25
2017-08-09T23:06:53.669Z,25.08
2017-08-09T23:09:20.346Z,20.70
2017-08-09T23:11:47.008Z,19.10
2017-08-09T23:14:13.679Z,18.75
2017-08-09T23:16:40.351Z,25.90
2017-08-09T23:19:07.016Z,26.80
2017-08-09T23:21:33.707Z,26.60
2017-08-09T23:24:00.367Z,28.67
2017-08-09T23:26:27.069Z,27.60
2017-08-09T23:28:53.743Z,30.45
2017-08-09T23:31:20.444Z,31.25
2017-08-09T23:33:47.116Z,32.03
2017-08-09T23:36:13.798Z,30.60
2017-08-09T23:38:40.459Z,32.20
2017-08-09T23:41:07.159Z,29.42
2017-08-09T23:43:33.831Z,29.23
2017-08-09T23:46:00.492Z,26.08
2017-08-09T23:48:27.156Z,25.50
2017-08-09T23:50:53.820Z,22.80
2017-08-09T23:53:20.496Z,21.60
2017-08-09T23:55:47.175Z,23.00
2017-08-09T23:58:13.864Z,22.52
